createdAt,value
2018-08-19T00:01:26.364Z,35.2
2018-08-19T00:11:26.434Z,37.0
2018-08-19T00:21:25.667Z,28.3
2018-08-19T00:31:25.500Z,30.6
2018-08-19T00:41:26.440Z,29.9
2018-08-19T00:51:26.378Z,28.7
2018-08-19T01:01:26.941Z,33.5
2018-08-19T01:11:26.922Z,33.1
2018-08-19T01:21:27.179Z,33.3
2018-08-19T01:31:26.112Z,29.1
2018-08-19T01:41:26.141Z,28.5
2018-08-19T01:51:26.267Z,27.3
2018-08-19T02:01:27.194Z,25.8
2018-08-19T02:11:26.656Z,32.2
2018-08-19T02:21:26.026Z,29.1
2018-08-19T02:31:45.963Z,29.8
2018-08-19T02:41:26.774Z,30.2
2018-08-19T02:51:26.485Z,34.2
2018-08-19T03:01:26.827Z,27.8
2018-08-19T03:11:25.696Z,35.5
2018-08-19T03:21:26.183Z,33.0
2018-08-19T03:31:27.602Z,34.0
2018-08-19T03:41:26.456Z,31.3
2018-08-19T03:51:26.252Z,34.4
2018-08-19T04:01:26.170Z,35.9
2018-08-19T04:11:26.523Z,32.4
2018-08-19T04:21:25.945Z,35.9
2018-08-19T04:31:26.592Z,39.2
2018-08-19T04:41:27.674Z,34.6
2018-08-19T04:51:26.628Z,34.3
2018-08-19T05:01:26.433Z,35.5
2018-08-19T05:11:26.668Z,40.6
2018-08-19T05:21:26.978Z,34.7
2018-08-19T05:31:25.992Z,35.4
2018-08-19T05:41:26.470Z,35.1
2018-08-19T05:51:26.372Z,36.7
2018-08-19T06:01:27.380Z,32.1
2018-08-19T06:11:27.651Z,33.7
2018-08-19T06:21:26.612Z,39.0
2018-08-19T06:31:28.007Z,34.1
2018-08-19T06:41:28.794Z,30.4
2018-08-19T06:51:26.694Z,32.9
2018-08-19T07:01:26.323Z,35.9
2018-08-19T07:11:26.762Z,31.3
2018-08-19T07:21:25.902Z,28.7
2018-08-19T07:31:31.351Z,30.7
2018-08-19T07:41:26.172Z,24.5
2018-08-19T07:51:26.408Z,24.5
2018-08-19T08:01:55.114Z,26.8
2018-08-19T08:11:26.308Z,26.4
2018-08-19T08:22:16.406Z,21.4
2018-08-19T08:31:26.400Z,21.5
2018-08-19T08:41:26.681Z,21.1
2018-08-19T08:51:25.715Z,19.8
2018-08-19T09:01:25.701Z,24.2
2018-08-19T09:11:25.806Z,20.5
2018-08-19T09:21:26.015Z,20.2
2018-08-19T09:31:31.837Z,16.5
2018-08-19T09:41:26.935Z,13.6
2018-08-19T09:51:25.964Z,12.5
2018-08-19T10:01:28.370Z,13.1
2018-08-19T10:11:28.956Z,11.7
2018-08-19T10:21:26.149Z,10.4
2018-08-19T10:31:26.651Z,9.1
2018-08-19T10:41:26.783Z,11.8
2018-08-19T10:51:26.432Z,11.8
2018-08-19T11:01:27.615Z,11.6
2018-08-19T11:11:31.789Z,9.7
2018-08-19T11:21:31.554Z,7.4
2018-08-19T11:31:31.640Z,8.7
2018-08-19T11:41:31.748Z,13.0
2018-08-19T11:51:33.407Z,8.1
2018-08-19T12:01:26.289Z,9.9
2018-08-19T12:11:32.183Z,7.7
2018-08-19T12:21:32.019Z,11.1
2018-08-19T12:31:27.047Z,9.6
2018-08-19T12:41:26.334Z,6.6
2018-08-19T12:51:26.451Z,5.5
2018-08-19T13:01:26.243Z,10.0
2018-08-19T13:11:26.466Z,12.2
2018-08-19T13:21:26.564Z,10.4
2018-08-19T13:31:26.438Z,7.6
2018-08-19T13:41:27.983Z,9.9
2018-08-19T13:51:26.032Z,7.5
2018-08-19T14:01:26.574Z,8.4
2018-08-19T14:11:27.687Z,9.4
2018-08-19T14:21:26.005Z,12.3
2018-08-19T14:31:26.018Z,10.8
2018-08-19T14:41:26.219Z,6.7
2018-08-19T14:51:28.385Z,8.6
2018-08-19T15:01:27.510Z,8.5
2018-08-19T15:11:26.440Z,8.9
2018-08-19T15:21:26.007Z,9.0
2018-08-19T15:31:26.481Z,9.3
2018-08-19T15:41:27.230Z,11.8
2018-08-19T15:51:26.604Z,8.8
2018-08-19T16:01:43.129Z,8.6
2018-08-19T16:11:26.060Z,9.9
2018-08-19T16:21:32.821Z,9.1
2018-08-19T16:31:26.133Z,16.3
2018-08-19T16:42:16.281Z,10.4
2018-08-19T16:51:32.760Z,12.7
2018-08-19T17:01:31.362Z,18.6
2018-08-19T17:11:31.776Z,14.1
2018-08-19T17:21:31.840Z,21.1
2018-08-19T17:31:31.419Z,12.9
2018-08-19T17:41:26.732Z,18.5
2018-08-19T17:51:26.411Z,22.7
2018-08-19T18:01:26.394Z,14.4
2018-08-19T18:11:26.323Z,16.2
2018-08-19T18:21:28.600Z,20.4
2018-08-19T18:31:44.940Z,18.7
2018-08-19T18:41:32.420Z,19.8
2018-08-19T18:51:28.480Z,17.8
2018-08-19T19:01:27.473Z,21.9
2018-08-19T19:11:26.739Z,24.3
2018-08-19T19:21:26.550Z,23.5
2018-08-19T19:31:26.586Z,23.3
2018-08-19T19:41:26.772Z,22.0
2018-08-19T19:51:29.260Z,23.7
2018-08-19T20:01:26.286Z,19.0
2018-08-19T20:11:26.694Z,21.5
2018-08-19T20:21:27.599Z,27.0
2018-08-19T20:31:27.486Z,24.6
2018-08-19T20:41:33.017Z,23.9
2018-08-19T20:51:25.952Z,18.8
2018-08-19T21:01:32.672Z,26.1
2018-08-19T21:11:32.704Z,26.5
2018-08-19T21:21:31.283Z,22.2
2018-08-19T21:31:26.227Z,26.8
2018-08-19T21:41:26.427Z,19.7
2018-08-19T21:51:26.930Z,24.6
2018-08-19T22:01:25.833Z,22.7
2018-08-19T22:11:27.764Z,20.6
2018-08-19T22:21:28.314Z,21.8
2018-08-19T22:31:26.335Z,21.8
2018-08-19T22:41:27.198Z,20.5
2018-08-19T22:51:25.805Z,25.3
2018-08-19T23:01:26.695Z,19.1
2018-08-19T23:11:26.049Z,23.7
2018-08-19T23:21:27.745Z,20.8
2018-08-19T23:31:26.047Z,21.9
2018-08-19T23:41:28.026Z,20.4
2018-08-19T23:51:26.186Z,19.2
